Time;durP1;ratioP1;P1;durP2;ratioP2;P2;SDS_P1;SDS_P2;PMS_P1;PMS_P2;Temp;Humidity;BMP_temperature;BMP_pressure;BME280_temperature;BME280_humidity;BME280_pressure;Samples;Min_cycle;Max_cycle;Signal;HPM_P1;HPM_P2
2021/07/15 00:01:48;;;;;;;0.85;0.10;;;;;;;21.71;75.14;99476.25;4962542;28;20046;-75
2021/07/15 00:04:14;;;;;;;0.30;0.25;;;;;;;21.71;75.69;99471.59;4932618;28;20062;-76
2021/07/15 00:06:41;;;;;;;0.47;0.30;;;;;;;21.71;75.73;99477.09;4961685;28;20126;-76
2021/07/15 00:09:07;;;;;;;0.20;0.20;;;;;;;21.67;75.43;99459.34;4939779;28;20046;-74
2021/07/15 00:11:35;;;;;;;0.20;0.20;;;;;;;21.61;75.16;99460.25;4962800;28;20504;-75
2021/07/15 00:14:01;;;;;;;0.30;0.20;;;;;;;21.60;75.16;99458.59;4974548;28;20137;-74
2021/07/15 00:16:27;;;;;;;0.20;0.20;;;;;;;21.55;74.56;99462.03;4967616;28;20070;-74
2021/07/15 00:18:53;;;;;;;0.30;0.20;;;;;;;21.51;75.66;99462.72;4945367;28;20558;-73
2021/07/15 00:21:21;;;;;;;0.20;0.20;;;;;;;21.52;75.57;99461.63;4966533;28;20130;-73
2021/07/15 00:23:48;;;;;;;0.20;0.20;;;;;;;21.54;75.92;99454.84;4984518;28;20302;-75
2021/07/15 00:26:15;;;;;;;0.20;0.20;;;;;;;21.54;76.19;99459.50;4958001;28;20039;-74
2021/07/15 00:28:41;;;;;;;0.20;0.20;;;;;;;21.51;76.60;99454.47;4962929;28;20039;-75
2021/07/15 00:31:11;;;;;;;0.20;0.20;;;;;;;21.47;76.54;99454.06;4966233;28;20454;-77
2021/07/15 00:33:45;;;;;;;0.20;0.20;;;;;;;21.49;76.56;99451.09;4919279;29;20417;-73
2021/07/15 00:36:12;;;;;;;0.20;0.20;;;;;;;21.48;76.40;99443.91;4940807;29;20050;-74
2021/07/15 00:38:38;;;;;;;0.25;0.20;;;;;;;21.48;75.81;99449.41;4942655;28;20045;-76
2021/07/15 00:41:04;;;;;;;0.30;0.30;;;;;;;21.48;75.18;99438.41;4959210;28;20051;-77
2021/07/15 00:43:31;;;;;;;0.70;0.20;;;;;;;21.50;74.36;99434.38;4981777;28;20026;-74
2021/07/15 00:45:57;;;;;;;0.20;0.20;;;;;;;21.52;75.36;99440.47;4968702;28;20046;-74
2021/07/15 00:48:22;;;;;;;0.20;0.20;;;;;;;21.47;75.05;99429.31;4957445;28;20471;-75
2021/07/15 00:50:48;;;;;;;0.30;0.20;;;;;;;21.41;74.89;99431.06;4980944;28;20051;-74
2021/07/15 00:53:14;;;;;;;0.75;0.47;;;;;;;21.41;75.16;99430.22;4972877;28;20434;-75
2021/07/15 00:55:44;;;;;;;0.17;0.17;;;;;;;21.33;76.20;99431.34;4969284;28;20102;-77
2021/07/15 00:58:13;;;;;;;0.20;0.20;;;;;;;21.33;76.00;99436.00;4976814;28;20038;-75
2021/07/15 01:00:41;;;;;;;0.90;0.30;;;;;;;21.30;76.20;99437.28;4964165;28;20042;-76
2021/07/15 01:03:08;;;;;;;0.10;0.10;;;;;;;21.30;75.83;99431.78;4954272;28;20054;-75
2021/07/15 01:05:37;;;;;;;0.20;0.17;;;;;;;21.30;75.29;99428.19;4985917;28;20081;-76
2021/07/15 01:08:04;;;;;;;0.20;0.20;;;;;;;21.11;75.93;99428.16;4976999;28;20091;-74
2021/07/15 01:10:33;;;;;;;0.95;0.30;;;;;;;21.06;76.13;99432.63;4980143;28;20050;-76
2021/07/15 01:13:11;;;;;;;1.10;0.50;;;;;;;21.07;75.91;99428.84;4978775;28;20131;-78
2021/07/15 01:16:09;;;;;;;0.70;0.35;;;;;;;21.05;75.76;99437.28;4930302;28;20449;-75
2021/07/15 01:18:56;;;;;;;0.68;0.40;;;;;;;20.93;75.56;99436.34;4957058;28;20034;-75
2021/07/15 01:21:52;;;;;;;0.20;0.20;;;;;;;20.89;76.02;99430.44;4978532;28;20062;-74
2021/07/15 01:24:55;;;;;;;0.50;0.20;;;;;;;20.90;75.68;99421.13;4978190;28;20121;-74
2021/07/15 01:27:27;;;;;;;;;;;;;;;20.84;75.71;99424.81;4975947;28;20601;-74
2021/07/15 01:30:19;;;;;;;0.43;0.20;;;;;;;20.78;75.90;99430.34;4968620;28;19926;-77
2021/07/15 01:33:05;;;;;;;0.47;0.20;;;;;;;20.73;76.21;99425.50;4963848;28;20089;-75
2021/07/15 01:35:50;;;;;;;0.20;0.20;;;;;;;20.69;76.44;99411.34;4926048;28;20065;-75
2021/07/15 01:38:25;;;;;;;0.55;0.30;;;;;;;20.69;76.52;99418.75;4962579;28;20114;-75
2021/07/15 01:41:23;;;;;;;0.20;0.20;;;;;;;20.66;76.78;99419.22;4912816;28;1772884;-74
2021/07/15 01:44:10;;;;;;;0.85;0.22;;;;;;;20.66;76.79;99427.47;4954813;28;20515;-75
2021/07/15 01:46:36;;;;;;;0.25;0.20;;;;;;;20.65;76.90;99417.53;4986983;28;20484;-75
2021/07/15 01:49:04;;;;;;;0.30;0.20;;;;;;;20.64;76.88;99427.69;4982763;28;20585;-76
2021/07/15 01:51:30;;;;;;;0.25;0.22;;;;;;;20.64;77.42;99430.44;4986017;28;20484;-77
2021/07/15 01:53:56;;;;;;;0.40;0.30;;;;;;;20.62;77.28;99428.94;4980234;28;20047;-75
2021/07/15 01:56:22;;;;;;;0.40;0.30;;;;;;;20.65;77.17;99434.00;4967899;28;20497;-75
2021/07/15 01:58:49;;;;;;;0.20;0.20;;;;;;;20.69;77.25;99424.25;4939006;28;20046;-75
2021/07/15 02:01:17;;;;;;;0.52;0.22;;;;;;;20.74;76.55;99426.34;4962554;28;20043;-76
2021/07/15 02:03:48;;;;;;;0.20;0.20;;;;;;;20.73;76.72;99430.97;4979463;28;20043;-75
2021/07/15 02:06:14;;;;;;;0.38;0.38;;;;;;;20.74;77.06;99418.94;4927890;28;20039;-76
2021/07/15 02:08:42;;;;;;;0.20;0.20;;;;;;;20.74;77.16;99404.38;4974094;28;20516;-75
2021/07/15 02:11:08;;;;;;;0.25;0.20;;;;;;;20.73;77.51;99414.50;4964723;28;20041;-75
2021/07/15 02:13:34;;;;;;;0.20;0.20;;;;;;;20.70;77.91;99417.72;4968346;28;20412;-74
2021/07/15 02:16:01;;;;;;;0.30;0.30;;;;;;;20.68;77.81;99414.34;4969132;28;20539;-74
2021/07/15 02:18:27;;;;;;;0.43;0.30;;;;;;;20.71;78.32;99425.72;4970026;28;20371;-74
2021/07/15 02:20:55;;;;;;;0.63;0.40;;;;;;;20.78;77.76;99428.44;4955069;28;20140;-76
2021/07/15 02:23:21;;;;;;;0.57;0.30;;;;;;;20.82;77.84;99429.66;4935836;28;20053;-75
2021/07/15 02:25:49;;;;;;;0.25;0.25;;;;;;;20.92;77.10;99424.50;4952435;28;20035;-75
2021/07/15 02:28:17;;;;;;;0.30;0.30;;;;;;;20.93;77.39;99430.84;4948216;28;20038;-75
2021/07/15 02:30:50;;;;;;;0.40;0.32;;;;;;;20.97;77.02;99421.09;4967655;28;20042;-75
2021/07/15 02:33:17;;;;;;;0.45;0.28;;;;;;;20.91;77.18;99420.09;4954518;28;20045;-76
2021/07/15 02:35:47;;;;;;;0.30;0.30;;;;;;;20.95;77.04;99424.06;4979122;28;20116;-77
2021/07/15 02:38:16;;;;;;;0.30;0.30;;;;;;;20.94;76.98;99422.38;4967029;28;20051;-75
2021/07/15 02:40:42;;;;;;;0.40;0.35;;;;;;;20.92;77.13;99419.00;4963201;28;20096;-75
2021/07/15 02:43:08;;;;;;;0.30;0.30;;;;;;;20.95;77.28;99418.56;4977105;28;20046;-75
2021/07/15 02:45:35;;;;;;;0.30;0.30;;;;;;;20.97;77.42;99425.75;4972149;28;20046;-76
2021/07/15 02:48:01;;;;;;;0.30;0.30;;;;;;;20.97;77.42;99425.75;4951865;28;20042;-76
2021/07/15 02:50:27;;;;;;;0.30;0.30;;;;;;;20.99;77.68;99423.59;4983513;28;20594;-75
2021/07/15 02:52:55;;;;;;;0.28;0.28;;;;;;;21.03;77.59;99431.19;4972336;28;20054;-76
2021/07/15 02:55:22;;;;;;;0.30;0.30;;;;;;;21.06;77.43;99435.38;4964225;28;20113;-77
2021/07/15 02:58:11;;;;;;;0.20;0.20;;;;;;;21.05;77.87;99428.19;4988807;28;20042;-77
2021/07/15 03:00:46;;;;;;;0.30;0.30;;;;;;;21.05;77.68;99431.78;4950420;28;20058;-75
2021/07/15 03:03:42;;;;;;;0.30;0.30;;;;;;;21.11;77.74;99427.31;4964624;28;20049;-76
2021/07/15 03:06:11;;;;;;;0.65;0.30;;;;;;;21.12;77.70;99427.06;4985899;28;20488;-77
2021/07/15 03:08:44;;;;;;;0.47;0.40;;;;;;;21.30;77.55;99433.69;4971329;28;20444;-76
2021/07/15 03:11:09;;;;;;;;;;;;;;;21.36;77.39;99428.16;4972629;28;20208;-75
2021/07/15 03:13:37;;;;;;;0.60;0.40;;;;;;;21.45;76.80;99419.59;4970277;28;20422;-75
2021/07/15 03:16:04;;;;;;;0.40;0.30;;;;;;;21.73;76.04;99422.69;4963773;28;20129;-76
2021/07/15 03:18:30;;;;;;;0.55;0.32;;;;;;;21.94;75.28;99415.00;4987934;28;20240;-76
2021/07/15 03:20:58;;;;;;;0.32;0.30;;;;;;;22.18;74.08;99421.53;4989354;28;20145;-77
2021/07/15 03:23:24;;;;;;;0.38;0.30;;;;;;;22.37;73.26;99421.22;4971775;28;20039;-76
2021/07/15 03:25:54;;;;;;;0.40;0.30;;;;;;;22.64;72.22;99426.38;4961726;28;20490;-76
2021/07/15 03:28:21;;;;;;;0.55;0.32;;;;;;;22.92;71.38;99428.47;4972087;28;20038;-76
2021/07/15 03:30:48;;;;;;;0.20;0.20;;;;;;;23.17;70.22;99425.50;4981965;28;20100;-77
2021/07/15 03:33:15;;;;;;;0.47;0.30;;;;;;;23.39;69.49;99438.72;4978998;28;20057;-76
2021/07/15 03:35:42;;;;;;;0.30;0.30;;;;;;;23.55;68.51;99438.84;4980409;28;20349;-76
2021/07/15 03:38:10;;;;;;;0.30;0.30;;;;;;;23.78;67.59;99426.94;4971100;28;20054;-76
2021/07/15 03:40:37;;;;;;;0.30;0.30;;;;;;;23.93;66.77;99433.88;4975146;28;20050;-75
2021/07/15 03:43:03;;;;;;;0.40;0.30;;;;;;;24.12;66.45;99432.63;4955207;28;20067;-75
2021/07/15 03:45:29;;;;;;;0.30;0.30;;;;;;;24.29;65.58;99440.97;4959139;28;20390;-77
2021/07/15 03:47:56;;;;;;;0.30;0.30;;;;;;;24.49;65.19;99430.34;4915449;28;20625;-77
2021/07/15 03:50:24;;;;;;;0.25;0.25;;;;;;;24.73;64.88;99438.53;4930315;28;20075;-78
2021/07/15 03:52:52;;;;;;;0.30;0.30;;;;;;;25.00;63.81;99455.31;4951308;28;20404;-77
2021/07/15 03:55:22;;;;;;;0.30;0.30;;;;;;;24.97;63.81;99456.66;4943441;28;20042;-76
2021/07/15 03:57:49;;;;;;;0.30;0.30;;;;;;;25.03;63.25;99449.28;4946029;28;20492;-75
2021/07/15 04:00:16;;;;;;;0.30;0.30;;;;;;;25.31;62.27;99451.16;4962886;28;20089;-78
2021/07/15 04:02:42;;;;;;;0.32;0.30;;;;;;;25.49;61.82;99447.28;4956436;28;20183;-77
2021/07/15 04:05:09;;;;;;;0.35;0.30;;;;;;;25.49;61.28;99444.50;4942170;28;20146;-75
2021/07/15 04:07:35;;;;;;;0.32;0.20;;;;;;;25.14;62.72;99451.16;4963561;28;20503;-75
2021/07/15 04:10:02;;;;;;;0.20;0.20;;;;;;;24.85;63.33;99441.22;4969611;28;20038;-78
2021/07/15 04:12:29;;;;;;;0.82;0.30;;;;;;;24.87;63.33;99444.59;4953104;28;20462;-76
2021/07/15 04:15:08;;;;;;;0.57;0.40;;;;;;;24.90;63.60;99444.06;4953456;28;20050;-77
2021/07/15 04:17:56;;;;;;;0.63;0.40;;;;;;;25.00;63.62;99444.25;4966493;28;20366;-76
2021/07/15 04:20:24;;;;;;;0.35;0.30;;;;;;;24.98;62.99;99438.13;4952037;28;20051;-79
2021/07/15 04:22:52;;;;;;;0.55;0.50;;;;;;;25.56;61.65;99436.88;4937055;28;20042;-76
2021/07/15 04:25:19;;;;;;;0.30;0.30;;;;;;;25.81;60.95;99443.88;4909010;28;20122;-78
2021/07/15 04:27:48;;;;;;;0.40;0.40;;;;;;;26.26;60.07;99434.47;4947600;28;20057;-77
2021/07/15 04:30:15;;;;;;;0.40;0.40;;;;;;;26.57;58.88;99430.13;4955412;28;20046;-78
2021/07/15 04:32:46;;;;;;;0.40;0.40;;;;;;;26.80;58.17;99428.97;4960952;28;20069;-78
2021/07/15 04:35:13;;;;;;;0.40;0.40;;;;;;;26.93;57.60;99423.81;4960086;28;20046;-79
2021/07/15 04:37:41;;;;;;;0.40;0.40;;;;;;;27.08;57.23;99417.56;4920354;28;20147;-80
2021/07/15 04:40:09;;;;;;;0.45;0.45;;;;;;;27.22;56.82;99409.66;4930079;28;20121;-75
2021/07/15 04:42:38;;;;;;;0.40;0.40;;;;;;;27.51;56.03;99415.69;4948450;28;20066;-77
2021/07/15 04:45:05;;;;;;;0.38;0.38;;;;;;;27.71;54.55;99414.13;4979451;28;20051;-78
2021/07/15 04:47:31;;;;;;;0.40;0.40;;;;;;;28.02;54.26;99429.03;4987436;28;20536;-78
2021/07/15 04:49:58;;;;;;;0.75;0.40;;;;;;;28.33;53.19;99424.41;4958964;28;20144;-75
2021/07/15 04:52:26;;;;;;;0.43;0.40;;;;;;;28.60;52.08;99425.06;4979795;28;20142;-77
2021/07/15 04:54:53;;;;;;;0.40;0.40;;;;;;;28.76;51.66;99419.53;4991638;28;20050;-78
2021/07/15 04:57:19;;;;;;;0.52;0.40;;;;;;;29.01;50.74;99419.56;4987805;28;20414;-77
2021/07/15 04:59:46;;;;;;;0.60;0.50;;;;;;;29.17;50.20;99416.78;4956727;28;20049;-77
2021/07/15 05:02:13;;;;;;;0.50;0.50;;;;;;;29.32;49.97;99419.53;4965612;28;20053;-80
2021/07/15 05:04:40;;;;;;;0.50;0.40;;;;;;;29.52;49.51;99421.47;4980454;28;20042;-78
2021/07/15 05:07:06;;;;;;;0.50;0.50;;;;;;;29.72;48.74;99418.66;4981828;28;20049;-77
2021/07/15 05:09:32;;;;;;;0.50;0.50;;;;;;;29.88;48.67;99416.69;4960866;28;20513;-77
2021/07/15 05:11:59;;;;;;;0.80;0.50;;;;;;;30.17;48.33;99402.09;4979517;28;20565;-81
2021/07/15 05:14:25;;;;;;;0.63;0.60;;;;;;;30.44;47.44;99402.47;4952220;28;20079;-78
2021/07/15 05:16:51;;;;;;;0.70;0.60;;;;;;;30.70;47.05;99402.31;4948448;28;20049;-79
2021/07/15 05:19:17;;;;;;;0.50;0.50;;;;;;;30.89;45.74;99403.31;4965683;28;20093;-79
2021/07/15 05:21:44;;;;;;;0.50;0.50;;;;;;;30.98;46.01;99390.41;4962007;28;20519;-79
2021/07/15 05:24:09;;;;;;;0.52;0.50;;;;;;;31.08;46.28;99397.00;4969670;28;20066;-76
2021/07/15 05:26:35;;;;;;;0.50;0.50;;;;;;;31.23;45.87;99408.06;4954426;28;20046;-79
2021/07/15 05:29:02;;;;;;;0.55;0.50;;;;;;;31.43;45.42;99402.28;4954544;28;20113;-76
2021/07/15 05:31:28;;;;;;;0.50;0.50;;;;;;;31.51;45.34;99399.97;4981057;28;20080;-76
2021/07/15 05:33:54;;;;;;;0.50;0.50;;;;;;;31.56;45.14;99395.19;4963163;28;20440;-76
2021/07/15 05:36:20;;;;;;;0.60;0.60;;;;;;;31.78;44.42;99394.66;4978150;28;20067;-80
2021/07/15 05:38:46;;;;;;;0.60;0.60;;;;;;;32.07;43.84;99404.94;4954132;28;20046;-76
2021/07/15 05:41:12;;;;;;;0.50;0.50;;;;;;;32.22;43.62;99401.13;4985620;28;20097;-78
2021/07/15 05:43:38;;;;;;;0.50;0.50;;;;;;;32.40;42.83;99398.38;4968183;28;20058;-77
2021/07/15 05:46:04;;;;;;;0.60;0.60;;;;;;;32.54;43.23;99400.41;4982947;28;20039;-79
2021/07/15 05:48:31;;;;;;;0.60;0.60;;;;;;;32.71;42.56;99406.28;4943848;28;20213;-83
2021/07/15 05:50:57;;;;;;;0.50;0.50;;;;;;;32.95;41.87;99408.22;4932570;28;20054;-76
2021/07/15 05:53:23;;;;;;;0.50;0.50;;;;;;;33.12;41.37;99411.25;4975401;28;20141;-77
2021/07/15 05:55:49;;;;;;;0.55;0.50;;;;;;;33.29;40.70;99407.88;4960728;28;20053;-76
2021/07/15 05:58:16;;;;;;;0.50;0.50;;;;;;;33.49;39.63;99406.69;4966232;28;20557;-78
2021/07/15 06:00:42;;;;;;;0.60;0.60;;;;;;;33.55;39.46;99399.88;4964082;28;20039;-77
2021/07/15 06:03:08;;;;;;;0.68;0.68;;;;;;;33.88;39.09;99403.41;4966600;28;20072;-79
2021/07/15 06:05:34;;;;;;;0.57;0.57;;;;;;;34.23;38.61;99399.06;4950084;28;20137;-79
2021/07/15 06:08:00;;;;;;;0.75;0.60;;;;;;;34.23;38.49;99392.63;4969072;28;20042;-75
2021/07/15 06:10:27;;;;;;;0.50;0.50;;;;;;;34.35;38.27;99392.06;4948973;28;20046;-77
2021/07/15 06:12:53;;;;;;;0.65;0.65;;;;;;;33.77;39.33;99397.19;4982384;28;20069;-79
2021/07/15 06:15:19;;;;;;;0.60;0.60;;;;;;;33.98;39.10;99391.16;4985005;28;20456;-78
2021/07/15 06:17:45;;;;;;;0.50;0.50;;;;;;;34.25;38.37;99391.13;4973855;28;20488;-76
2021/07/15 06:20:20;;;;;;;0.60;0.60;;;;;;;34.08;38.12;99385.38;4954117;28;20050;-79
2021/07/15 06:22:46;;;;;;;0.60;0.60;;;;;;;34.36;38.15;99380.50;4968568;28;20130;-77
2021/07/15 06:25:13;;;;;;;0.68;0.68;;;;;;;34.44;37.82;99376.13;4954133;28;20264;-76
2021/07/15 06:27:40;;;;;;;0.80;0.80;;;;;;;35.24;36.79;99372.50;4986631;28;20093;-77
2021/07/15 06:30:08;;;;;;;0.60;0.60;;;;;;;35.64;35.53;99380.97;4969854;28;20117;-77
2021/07/15 06:32:34;;;;;;;0.60;0.60;;;;;;;35.82;34.99;99378.25;4966995;28;20065;-79
2021/07/15 06:35:01;;;;;;;0.60;0.60;;;;;;;35.87;34.69;99386.53;4973427;28;20069;-77
2021/07/15 06:37:32;;;;;;;0.60;0.60;;;;;;;36.24;34.00;99376.75;4954985;28;20045;-78
2021/07/15 06:39:59;;;;;;;0.60;0.60;;;;;;;36.50;33.89;99373.97;4957557;28;20042;-78
2021/07/15 06:42:25;;;;;;;0.70;0.70;;;;;;;36.74;33.25;99372.63;4956908;28;20137;-79
2021/07/15 06:44:52;;;;;;;0.65;0.65;;;;;;;36.99;33.54;99377.44;4970401;28;20062;-80
2021/07/15 06:47:18;;;;;;;0.60;0.60;;;;;;;36.92;32.89;99379.91;4954199;28;20046;-77
2021/07/15 06:49:44;;;;;;;0.65;0.65;;;;;;;37.30;32.32;99374.41;4981110;28;20100;-78
2021/07/15 06:52:10;;;;;;;0.60;0.60;;;;;;;37.30;32.34;99377.22;4968366;28;20034;-79
2021/07/15 06:54:36;;;;;;;0.65;0.65;;;;;;;37.80;31.97;99375.72;4970308;28;20125;-78
2021/07/15 06:57:03;;;;;;;0.60;0.60;;;;;;;38.05;31.59;99371.16;4988598;28;20068;-81
2021/07/15 06:59:29;;;;;;;0.70;0.70;;;;;;;37.90;31.81;99369.75;4974286;28;20089;-80
2021/07/15 07:01:54;;;;;;;0.82;0.82;;;;;;;38.42;30.36;99374.25;4986897;28;20050;-79
2021/07/15 07:04:21;;;;;;;0.70;0.70;;;;;;;37.95;30.77;99372.34;4973188;28;20121;-81
2021/07/15 07:06:50;;;;;;;0.70;0.70;;;;;;;37.74;30.95;99377.09;4952117;28;20399;-79
2021/07/15 07:09:17;;;;;;;0.63;0.63;;;;;;;38.45;30.84;99376.38;4958540;28;20049;-81
2021/07/15 07:11:43;;;;;;;0.70;0.70;;;;;;;38.02;31.26;99369.81;4991458;28;20046;-79
2021/07/15 07:14:10;;;;;;;0.60;0.60;;;;;;;38.78;30.21;99365.97;4973258;28;20142;-79
2021/07/15 07:16:35;;;;;;;0.70;0.70;;;;;;;39.08;29.62;99369.50;4976707;28;20030;-81
2021/07/15 07:19:02;;;;;;;0.77;0.77;;;;;;;39.22;29.36;99359.91;4973241;28;20596;-81
2021/07/15 07:21:31;;;;;;;0.90;0.90;;;;;;;39.36;29.43;99363.25;4988893;28;20034;-81
2021/07/15 07:23:59;;;;;;;0.73;0.73;;;;;;;39.78;28.67;99363.09;4943842;28;20048;-78
2021/07/15 07:26:25;;;;;;;0.80;0.80;;;;;;;39.42;29.15;99367.53;4960321;28;20053;-80
2021/07/15 07:28:51;;;;;;;0.70;0.70;;;;;;;39.02;28.99;99359.63;4958978;28;20047;-80
2021/07/15 07:31:18;;;;;;;0.73;0.73;;;;;;;39.18;27.96;99367.44;4984242;28;20126;-83
2021/07/15 07:33:44;;;;;;;0.70;0.70;;;;;;;39.93;27.25;99365.22;4971790;28;20090;-81
2021/07/15 07:36:10;;;;;;;0.70;0.70;;;;;;;40.14;27.19;99361.44;4958441;28;20211;-80
2021/07/15 07:38:37;;;;;;;0.80;0.80;;;;;;;40.67;26.76;99365.13;4992205;28;20046;-84
2021/07/15 07:41:03;;;;;;;0.82;0.80;;;;;;;40.75;26.83;99361.31;4955899;28;20137;-80
2021/07/15 07:43:29;;;;;;;0.70;0.70;;;;;;;39.19;29.16;99347.28;4987540;28;20042;-82
2021/07/15 07:45:56;;;;;;;0.80;0.80;;;;;;;39.57;28.72;99353.84;4953839;28;20124;-81
2021/07/15 07:48:22;;;;;;;0.70;0.70;;;;;;;39.96;28.21;99347.50;4988126;28;20050;-80
2021/07/15 07:50:49;;;;;;;0.90;0.90;;;;;;;39.25;29.10;99339.44;4988300;28;20161;-80
2021/07/15 07:53:14;;;;;;;0.80;0.80;;;;;;;38.78;28.06;99348.19;4970586;28;20053;-81
2021/07/15 07:55:43;;;;;;;0.95;0.90;;;;;;;38.56;28.46;99350.19;4988270;28;20093;-79
2021/07/15 07:58:10;;;;;;;0.80;0.80;;;;;;;37.67;30.09;99348.59;4957708;28;20053;-79
2021/07/15 08:00:36;;;;;;;0.80;0.80;;;;;;;38.32;28.91;99347.19;4955316;28;20034;-83
2021/07/15 08:03:02;;;;;;;0.90;0.90;;;;;;;37.97;29.24;99338.16;4974098;28;20042;-80
2021/07/15 08:05:29;;;;;;;0.80;0.80;;;;;;;38.28;28.66;99340.59;4984664;28;20042;-83
2021/07/15 08:07:57;;;;;;;0.90;0.90;;;;;;;38.64;27.73;99331.50;4961217;28;20384;-82
2021/07/15 08:10:22;;;;;;;0.80;0.80;;;;;;;38.17;28.75;99328.03;4972967;28;20046;-82
2021/07/15 08:12:50;;;;;;;0.80;0.80;;;;;;;39.31;27.20;99332.38;4955431;28;20133;-79
2021/07/15 08:15:16;;;;;;;0.90;0.90;;;;;;;39.87;27.17;99332.66;4939937;28;20122;-81
2021/07/15 08:17:43;;;;;;;0.90;0.90;;;;;;;40.80;25.59;99341.22;4987455;28;20404;-78
2021/07/15 08:20:10;;;;;;;0.98;0.98;;;;;;;40.57;26.52;99337.31;4989492;28;20069;-81
2021/07/15 08:22:36;;;;;;;0.80;0.80;;;;;;;38.87;27.48;99323.53;4968903;28;20054;-81
2021/07/15 08:25:04;;;;;;;0.90;0.90;;;;;;;38.80;27.78;99324.09;4955080;28;20091;-79
2021/07/15 08:27:30;;;;;;;0.90;0.90;;;;;;;39.98;26.59;99328.16;4969413;28;20042;-83
2021/07/15 08:29:56;;;;;;;0.80;0.80;;;;;;;41.35;25.36;99339.50;4956920;28;20070;-81
2021/07/15 08:32:22;;;;;;;0.80;0.80;;;;;;;39.93;26.65;99336.06;4942289;28;20081;-80
2021/07/15 08:34:49;;;;;;;0.90;0.90;;;;;;;40.77;25.97;99335.44;4969361;28;20085;-81
2021/07/15 08:37:15;;;;;;;0.90;0.90;;;;;;;40.42;26.18;99338.84;4965843;28;20528;-81
2021/07/15 08:39:41;;;;;;;0.90;0.90;;;;;;;40.33;26.68;99330.47;4987754;28;20125;-78
2021/07/15 08:42:08;;;;;;;0.90;0.90;;;;;;;41.86;25.18;99328.28;4987937;28;20080;-81
2021/07/15 08:44:34;;;;;;;0.90;0.90;;;;;;;40.89;25.46;99321.22;4989055;28;20484;-82
2021/07/15 08:47:01;;;;;;;0.85;0.85;;;;;;;41.29;25.36;99323.97;4953800;28;20108;-81
2021/07/15 08:49:27;;;;;;;0.98;0.98;;;;;;;41.65;24.54;99319.19;4973119;28;20477;-81
2021/07/15 08:51:54;;;;;;;0.80;0.80;;;;;;;42.90;23.21;99312.72;4983683;28;20141;-80
2021/07/15 08:54:21;;;;;;;1.10;1.10;;;;;;;42.55;23.65;99316.44;4957128;28;20038;-77
2021/07/15 08:56:47;;;;;;;0.80;0.80;;;;;;;43.09;23.09;99302.16;4977946;28;20476;-83
2021/07/15 08:59:16;;;;;;;0.80;0.80;;;;;;;42.81;23.10;99310.91;4948238;28;20604;-80
2021/07/15 09:01:46;;;;;;;0.90;0.90;;;;;;;43.72;22.19;99300.81;4951495;28;20146;-78
2021/07/15 09:04:13;;;;;;;0.97;0.97;;;;;;;41.93;23.68;99299.22;4932537;28;20128;-79
2021/07/15 09:06:42;;;;;;;0.80;0.80;;;;;;;41.46;24.63;99299.25;4962400;28;20061;-80
2021/07/15 09:09:10;;;;;;;0.80;0.80;;;;;;;41.37;24.44;99291.72;4960684;28;20208;-81
2021/07/15 09:11:37;;;;;;;0.95;0.95;;;;;;;42.02;23.93;99288.50;4975304;28;20091;-79
2021/07/15 09:14:14;;;;;;;0.80;0.80;;;;;;;42.86;22.84;99270.81;4931163;28;20031;-79
2021/07/15 09:16:47;;;;;;;0.90;0.90;;;;;;;43.04;22.44;99287.38;4946256;28;20054;-80
2021/07/15 09:19:15;;;;;;;0.80;0.80;;;;;;;43.16;22.26;99281.53;4994373;28;20504;-78
2021/07/15 09:21:44;;;;;;;0.90;0.90;;;;;;;43.22;22.49;99271.47;4944904;28;21399;-78
2021/07/15 09:24:29;;;;;;;1.00;1.00;;;;;;;44.63;20.99;99263.81;4944541;28;20180;-79
2021/07/15 09:26:55;;;;;;;0.70;0.70;;;;;;;43.98;20.62;99262.16;4965497;28;20061;-81
2021/07/15 09:29:22;;;;;;;0.80;0.80;;;;;;;44.14;20.56;99248.53;4961500;28;20104;-84
2021/07/15 09:31:59;;;;;;;0.80;0.80;;;;;;;44.63;20.53;99253.22;4958736;28;20034;-82
2021/07/15 09:34:28;;;;;;;0.82;0.82;;;;;;;44.84;19.61;99243.31;4965520;28;20567;-79
2021/07/15 09:36:54;;;;;;;0.90;0.90;;;;;;;44.99;19.42;99248.75;4970343;28;20046;-82
2021/07/15 09:39:26;;;;;;;1.10;1.02;;;;;;;44.84;19.57;99240.44;4954066;28;20037;-82
2021/07/15 09:42:04;;;;;;;0.80;0.80;;;;;;;44.72;19.52;99239.53;4976186;28;20542;-83
2021/07/15 09:44:31;;;;;;;0.80;0.80;;;;;;;45.42;19.30;99231.22;4989311;28;20090;-81
2021/07/15 09:46:57;;;;;;;0.80;0.80;;;;;;;45.75;19.26;99232.25;4953885;28;20070;-84
2021/07/15 09:49:33;;;;;;;1.27;1.17;;;;;;;45.85;18.36;99237.25;4941301;28;20185;-84
2021/07/15 09:52:00;;;;;;;0.90;0.90;;;;;;;46.08;18.08;99240.66;4969601;28;20050;-82
2021/07/15 09:54:27;;;;;;;0.70;0.70;;;;;;;44.58;19.86;99244.19;4987397;28;20042;-79
2021/07/15 09:56:54;;;;;;;0.80;0.80;;;;;;;43.84;20.73;99233.41;4967387;28;20093;-82
2021/07/15 09:59:20;;;;;;;0.70;0.70;;;;;;;42.97;21.41;99230.38;4972965;28;20057;-83
2021/07/15 10:01:52;;;;;;;0.60;0.60;;;;;;;43.72;20.89;99226.75;4988158;28;20065;-80
2021/07/15 10:04:22;;;;;;;0.32;0.32;;;;;;;42.39;21.58;99217.88;4965767;28;20192;-80
2021/07/15 10:06:50;;;;;;;0.10;0.10;;;;;;;41.19;23.09;99211.84;4953326;28;20138;-82
2021/07/15 10:09:26;;;;;;;0.10;0.10;;;;;;;39.41;24.97;99213.06;4984618;28;20118;-80
2021/07/15 10:12:00;;;;;;;0.00;0.00;;;;;;;38.76;25.76;99212.03;4972528;28;20058;-81
2021/07/15 10:14:40;;;;;;;0.10;0.10;;;;;;;37.46;27.77;99219.59;4973493;28;20510;-78
2021/07/15 10:17:06;;;;;;;0.10;0.10;;;;;;;36.86;28.66;99212.16;4978080;28;20066;-81
2021/07/15 10:19:32;;;;;;;0.00;0.00;;;;;;;37.01;28.22;99205.19;4969206;28;20053;-79
2021/07/15 10:22:02;;;;;;;0.10;0.10;;;;;;;37.05;28.96;99209.81;4965202;28;20039;-81
2021/07/15 10:24:29;;;;;;;0.10;0.10;;;;;;;36.94;28.95;99214.16;4986086;28;20035;-80
2021/07/15 10:27:03;;;;;;;0.00;0.00;;;;;;;36.40;29.48;99239.94;4989718;28;20046;-80
2021/07/15 10:29:31;;;;;;;0.30;0.15;;;;;;;33.80;35.17;99245.13;4986167;28;20096;-82
2021/07/15 10:31:58;;;;;;;0.68;0.20;;;;;;;32.72;37.04;99242.75;4968149;28;20050;-81
2021/07/15 10:34:28;;;;;;;0.17;0.10;;;;;;;32.27;37.91;99248.00;4972025;28;20464;-83
2021/07/15 10:37:05;;;;;;;0.80;0.20;;;;;;;32.14;38.77;99244.00;4957669;28;20042;-80
2021/07/15 10:39:33;;;;;;;0.40;0.20;;;;;;;31.40;40.32;99249.19;4951592;28;20050;-82
2021/07/15 10:42:00;;;;;;;0.77;0.20;;;;;;;31.61;39.21;99246.97;4950738;28;20091;-81
2021/07/15 10:44:26;;;;;;;0.28;0.10;;;;;;;31.61;38.33;99240.56;4928173;28;20624;-81
2021/07/15 10:46:53;;;;;;;0.38;0.28;;;;;;;31.05;38.97;99249.63;4950625;28;20102;-79
2021/07/15 10:49:21;;;;;;;0.10;0.10;;;;;;;30.89;39.03;99241.38;4930808;28;20102;-79
2021/07/15 10:51:49;;;;;;;0.10;0.10;;;;;;;30.36;39.39;99241.31;4948745;28;20515;-80
2021/07/15 10:54:19;;;;;;;0.22;0.10;;;;;;;30.28;39.85;99261.47;4950373;28;20042;-78
2021/07/15 10:56:50;;;;;;;0.45;0.20;;;;;;;30.04;40.27;99258.53;4948950;28;20034;-78
2021/07/15 10:59:29;;;;;;;0.22;0.15;;;;;;;30.44;39.30;99251.00;4953102;28;20078;-77
2021/07/15 11:01:59;;;;;;;0.10;0.10;;;;;;;30.25;39.71;99259.25;4908425;28;20104;-82
2021/07/15 11:04:40;;;;;;;0.10;0.10;;;;;;;29.87;40.30;99275.63;4937710;28;20098;-80
2021/07/15 11:07:28;;;;;;;0.43;0.10;;;;;;;29.86;40.73;99279.53;4949074;28;20072;-81
2021/07/15 11:10:21;;;;;;;0.10;0.10;;;;;;;29.06;42.88;99293.47;4968521;28;20043;-80
2021/07/15 11:12:56;;;;;;;0.10;0.10;;;;;;;29.27;42.88;99260.84;4951613;28;20046;-80
2021/07/15 11:15:22;;;;;;;0.28;0.20;;;;;;;28.84;42.84;99280.66;4968243;28;20047;-78
2021/07/15 11:17:51;;;;;;;0.10;0.10;;;;;;;29.28;42.04;99276.41;4954312;28;20085;-80
2021/07/15 11:20:28;;;;;;;0.10;0.10;;;;;;;29.06;42.24;99277.59;4951291;28;20113;-77
2021/07/15 11:22:57;;;;;;;0.10;0.10;;;;;;;28.83;43.35;99278.16;4964966;28;20058;-81
2021/07/15 11:25:36;;;;;;;0.40;0.10;;;;;;;29.27;42.72;99288.69;4951620;28;20039;-81
2021/07/15 11:28:16;;;;;;;0.10;0.10;;;;;;;28.80;43.55;99289.84;4965520;28;20492;-78
2021/07/15 11:30:47;;;;;;;0.10;0.10;;;;;;;28.70;44.08;99312.94;4937333;28;20054;-78
2021/07/15 11:33:17;;;;;;;0.10;0.10;;;;;;;28.34;44.69;99326.00;4960552;28;20074;-81
2021/07/15 11:35:51;;;;;;;0.10;0.10;;;;;;;27.90;45.53;99334.78;4952002;28;20042;-77
2021/07/15 11:38:30;;;;;;;0.10;0.10;;;;;;;27.95;45.87;99334.78;4966421;28;20045;-79
2021/07/15 11:41:15;;;;;;;0.10;0.10;;;;;;;27.75;46.50;99340.28;4960098;28;20201;-79
2021/07/15 11:43:47;;;;;;;0.10;0.10;;;;;;;27.80;46.65;99345.88;4938675;28;20100;-81